sensor_id;sensor_type;location;lat;lon;timestamp;pressure;altitude;pressure_sealevel;temperature;humidity
14767;BME280;7475;53.558;9.970;2023-06-22T00:00:52;101910.22;;;20.41;100.00
14767;BME280;7475;53.558;9.970;2023-06-22T00:03:18;101915.88;;;20.38;100.00
14767;BME280;7475;53.558;9.970;2023-06-22T00:05:45;101917.88;;;20.36;100.00
14767;BME280;7475;53.558;9.970;2023-06-22T00:08:10;101910.75;;;20.35;100.00
14767;BME280;7475;53.558;9.970;2023-06-22T00:10:36;101915.56;;;20.31;100.00
14767;BME280;7475;53.558;9.970;2023-06-22T00:13:01;101911.28;;;20.29;100.00
14767;BME280;7475;53.558;9.970;2023-06-22T00:15:27;101907.88;;;20.27;100.00
14767;BME280;7475;53.558;9.970;2023-06-22T00:17:52;101897.09;;;20.27;100.00
14767;BME280;7475;53.558;9.970;2023-06-22T00:20:18;101906.19;;;20.26;100.00
14767;BME280;7475;53.558;9.970;2023-06-22T00:22:44;101902.75;;;20.24;100.00
14767;BME280;7475;53.558;9.970;2023-06-22T00:25:10;101902.75;;;20.24;100.00
14767;BME280;7475;53.558;9.970;2023-06-22T00:27:36;101908.16;;;20.24;100.00
14767;BME280;7475;53.558;9.970;2023-06-22T00:30:02;101919.94;;;20.23;100.00
14767;BME280;7475;53.558;9.970;2023-06-22T00:32:27;101918.94;;;20.24;100.00
14767;BME280;7475;53.558;9.970;2023-06-22T00:34:52;101911.59;;;20.26;100.00
14767;BME280;7475;53.558;9.970;2023-06-22T00:37:18;101915.00;;;20.28;100.00
14767;BME280;7475;53.558;9.970;2023-06-22T00:39:43;101918.41;;;20.30;100.00
14767;BME280;7475;53.558;9.970;2023-06-22T00:42:09;101929.19;;;20.30;100.00
14767;BME280;7475;53.558;9.970;2023-06-22T00:44:37;101920.13;;;20.31;100.00
14767;BME280;7475;53.558;9.970;2023-06-22T00:47:03;101920.84;;;20.33;100.00
14767;BME280;7475;53.558;9.970;2023-06-22T00:49:28;101931.63;;;20.33;100.00
14767;BME280;7475;53.558;9.970;2023-06-22T00:51:55;101923.53;;;20.33;100.00
14767;BME280;7475;53.558;9.970;2023-06-22T00:54:21;101921.81;;;20.32;100.00
14767;BME280;7475;53.558;9.970;2023-06-22T00:56:51;101914.72;;;20.31;100.00
14767;BME280;7475;53.558;9.970;2023-06-22T00:59:20;101928.22;;;20.31;100.00
14767;BME280;7475;53.558;9.970;2023-06-22T01:01:46;101929.19;;;20.30;100.00
14767;BME280;7475;53.558;9.970;2023-06-22T01:04:11;101929.47;;;20.27;100.00
14767;BME280;7475;53.558;9.970;2023-06-22T01:06:43;101931.19;;;20.28;100.00
14767;BME280;7475;53.558;9.970;2023-06-22T01:09:25;101934.00;;;20.26;100.00
14767;BME280;7475;53.558;9.970;2023-06-22T01:11:55;101933.16;;;20.26;100.00
14767;BME280;7475;53.558;9.970;2023-06-22T01:14:36;101928.75;;;20.25;100.00
14767;BME280;7475;53.558;9.970;2023-06-22T01:17:05;101928.88;;;20.23;100.00
14767;BME280;7475;53.558;9.970;2023-06-22T01:19:39;101929.97;;;20.20;100.00
14767;BME280;7475;53.558;9.970;2023-06-22T01:22:10;101918.50;;;20.18;100.00
14767;BME280;7475;53.558;9.970;2023-06-22T01:24:51;101929.41;;;20.17;100.00
14767;BME280;7475;53.558;9.970;2023-06-22T01:27:39;101931.53;;;20.13;100.00
14767;BME280;7475;53.558;9.970;2023-06-22T01:30:11;101926.25;;;20.12;100.00
14767;BME280;7475;53.558;9.970;2023-06-22T01:32:39;101921.97;;;20.09;100.00
14767;BME280;7475;53.558;9.970;2023-06-22T01:35:07;101920.28;;;20.08;100.00
14767;BME280;7475;53.558;9.970;2023-06-22T01:37:34;101916.84;;;20.06;100.00
14767;BME280;7475;53.558;9.970;2023-06-22T01:40:01;101912.72;;;20.02;100.00
14767;BME280;7475;53.558;9.970;2023-06-22T01:42:28;101919.09;;;20.01;100.00
14767;BME280;7475;53.558;9.970;2023-06-22T01:44:55;101915.69;;;19.99;100.00
14767;BME280;7475;53.558;9.970;2023-06-22T01:47:21;101921.09;;;19.99;100.00
14767;BME280;7475;53.558;9.970;2023-06-22T01:49:47;101932.00;;;19.97;100.00
14767;BME280;7475;53.558;9.970;2023-06-22T01:52:13;101923.31;;;19.94;100.00
14767;BME280;7475;53.558;9.970;2023-06-22T01:54:39;101918.19;;;19.91;100.00
14767;BME280;7475;53.558;9.970;2023-06-22T01:57:05;101928.22;;;19.89;100.00
14767;BME280;7475;53.558;9.970;2023-06-22T02:02:24;101918.72;;;19.85;100.00
14767;BME280;7475;53.558;9.970;2023-06-22T02:05:03;101922.38;;;19.83;100.00
14767;BME280;7475;53.558;9.970;2023-06-22T02:07:35;101923.53;;;19.81;100.00
14767;BME280;7475;53.558;9.970;2023-06-22T02:10:05;101921.81;;;19.80;100.00
14767;BME280;7475;53.558;9.970;2023-06-22T02:12:32;101927.47;;;19.77;100.00
14767;BME280;7475;53.558;9.970;2023-06-22T02:14:59;101930.25;;;19.75;100.00
14767;BME280;7475;53.558;9.970;2023-06-22T02:17:26;101922.44;;;19.72;100.00
14767;BME280;7475;53.558;9.970;2023-06-22T02:19:51;101918.03;;;19.71;100.00
14767;BME280;7475;53.558;9.970;2023-06-22T02:22:17;101920.00;;;19.69;100.00
14767;BME280;7475;53.558;9.970;2023-06-22T02:24:42;101918.31;;;19.68;100.00
14767;BME280;7475;53.558;9.970;2023-06-22T02:27:08;101920.25;;;19.66;100.00
14767;BME280;7475;53.558;9.970;2023-06-22T02:29:33;101916.84;;;19.64;100.00
14767;BME280;7475;53.558;9.970;2023-06-22T02:31:59;101908.03;;;19.62;100.00
14767;BME280;7475;53.558;9.970;2023-06-22T02:34:24;101902.91;;;19.59;100.00
14767;BME280;7475;53.558;9.970;2023-06-22T02:36:50;101904.88;;;19.57;100.00
14767;BME280;7475;53.558;9.970;2023-06-22T02:39:25;101898.75;;;19.55;100.00
14767;BME280;7475;53.558;9.970;2023-06-22T02:41:53;101905.41;;;19.51;100.00
14767;BME280;7475;53.558;9.970;2023-06-22T02:44:19;101903.69;;;19.50;100.00
14767;BME280;7475;53.558;9.970;2023-06-22T02:46:45;101906.50;;;19.48;100.00
14767;BME280;7475;53.558;9.970;2023-06-22T02:49:11;101907.63;;;19.45;100.00
14767;BME280;7475;53.558;9.970;2023-06-22T02:51:39;101904.19;;;19.43;100.00
14767;BME280;7475;53.558;9.970;2023-06-22T02:54:05;101900.78;;;19.41;100.00
14767;BME280;7475;53.558;9.970;2023-06-22T02:56:30;101904.44;;;19.40;100.00
14767;BME280;7475;53.558;9.970;2023-06-22T02:58:56;101915.47;;;19.37;100.00
14767;BME280;7475;53.558;9.970;2023-06-22T03:01:26;101913.78;;;19.36;100.00
14767;BME280;7475;53.558;9.970;2023-06-22T03:03:53;101908.66;;;19.33;100.00
14767;BME280;7475;53.558;9.970;2023-06-22T03:06:18;101909.63;;;19.32;100.00
14767;BME280;7475;53.558;9.970;2023-06-22T03:08:50;101916.03;;;19.31;100.00
14767;BME280;7475;53.558;9.970;2023-06-22T03:11:16;101914.31;;;19.30;100.00
14767;BME280;7475;53.558;9.970;2023-06-22T03:13:41;101921.66;;;19.28;100.00
14767;BME280;7475;53.558;9.970;2023-06-22T03:16:06;101914.56;;;19.27;100.00
14767;BME280;7475;53.558;9.970;2023-06-22T03:18:32;101916.53;;;19.25;100.00
14767;BME280;7475;53.558;9.970;2023-06-22T03:20:57;101924.88;;;19.22;100.00
14767;BME280;7475;53.558;9.970;2023-06-22T03:23:22;101922.16;;;19.22;100.00
14767;BME280;7475;53.558;9.970;2023-06-22T03:25:48;101922.16;;;19.22;100.00
14767;BME280;7475;53.558;9.970;2023-06-22T03:28:13;101927.56;;;19.22;100.00
14767;BME280;7475;53.558;9.970;2023-06-22T03:30:38;101929.25;;;19.23;100.00
14767;BME280;7475;53.558;9.970;2023-06-22T03:33:04;101932.94;;;19.22;100.00
14767;BME280;7475;53.558;9.970;2023-06-22T03:35:29;101934.63;;;19.23;100.00
14767;BME280;7475;53.558;9.970;2023-06-22T03:37:54;101935.50;;;19.23;100.00
14767;BME280;7475;53.558;9.970;2023-06-22T03:40:20;101944.31;;;19.25;100.00
14767;BME280;7475;53.558;9.970;2023-06-22T03:42:46;101941.63;;;19.25;100.00
14767;BME280;7475;53.558;9.970;2023-06-22T03:45:11;101939.75;;;19.26;100.00
14767;BME280;7475;53.558;9.970;2023-06-22T03:47:36;101944.91;;;19.29;100.00
14767;BME280;7475;53.558;9.970;2023-06-22T03:50:02;101944.66;;;19.32;100.00
14767;BME280;7475;53.558;9.970;2023-06-22T03:52:29;101948.09;;;19.34;100.00
14767;BME280;7475;53.558;9.970;2023-06-22T03:54:55;101954.19;;;19.36;100.00
14767;BME280;7475;53.558;9.970;2023-06-22T03:57:20;101949.53;;;19.38;100.00
14767;BME280;7475;53.558;9.970;2023-06-22T03:59:45;101954.66;;;19.41;100.00
14767;BME280;7475;53.558;9.970;2023-06-22T04:02:11;101948.19;;;19.44;100.00
14767;BME280;7475;53.558;9.970;2023-06-22T04:04:36;101958.69;;;19.47;100.00
14767;BME280;7475;53.558;9.970;2023-06-22T04:07:04;101964.69;;;19.51;100.00
14767;BME280;7475;53.558;9.970;2023-06-22T04:09:29;101969.81;;;19.54;100.00
14767;BME280;7475;53.558;9.970;2023-06-22T04:11:54;101960.72;;;19.55;100.00
14767;BME280;7475;53.558;9.970;2023-06-22T04:14:19;101955.06;;;19.58;100.00
14767;BME280;7475;53.558;9.970;2023-06-22T04:16:45;101967.31;;;19.62;100.00
14767;BME280;7475;53.558;9.970;2023-06-22T04:19:10;101976.13;;;19.64;100.00
14767;BME280;7475;53.558;9.970;2023-06-22T04:21:41;101980.41;;;19.67;100.00
14767;BME280;7475;53.558;9.970;2023-06-22T04:24:06;101977.59;;;19.68;100.00
14767;BME280;7475;53.558;9.970;2023-06-22T04:26:32;101981.00;;;19.70;100.00
14767;BME280;7475;53.558;9.970;2023-06-22T04:29:02;101980.75;;;19.73;100.00
14767;BME280;7475;53.558;9.970;2023-06-22T04:31:30;101976.06;;;19.75;100.00
14767;BME280;7475;53.558;9.970;2023-06-22T04:33:57;101973.16;;;19.78;100.00
14767;BME280;7475;53.558;9.970;2023-06-22T04:36:22;101967.50;;;19.81;100.00
14767;BME280;7475;53.558;9.970;2023-06-22T04:38:48;101976.31;;;19.83;100.00
14767;BME280;7475;53.558;9.970;2023-06-22T04:41:17;101982.44;;;19.86;100.00
14767;BME280;7475;53.558;9.970;2023-06-22T04:43:48;101984.84;;;19.89;100.00
14767;BME280;7475;53.558;9.970;2023-06-22T04:46:19;101979.19;;;19.92;100.00
14767;BME280;7475;53.558;9.970;2023-06-22T04:48:44;101978.81;;;19.96;100.00
14767;BME280;7475;53.558;9.970;2023-06-22T04:51:09;101979.44;;;20.00;100.00
14767;BME280;7475;53.558;9.970;2023-06-22T04:53:35;101979.13;;;20.03;100.00
14767;BME280;7475;53.558;9.970;2023-06-22T04:56:01;101985.00;;;20.08;100.00
14767;BME280;7475;53.558;9.970;2023-06-22T04:58:29;101981.91;;;20.13;100.00
14767;BME280;7475;53.558;9.970;2023-06-22T05:00:57;101969.72;;;20.18;100.00
14767;BME280;7475;53.558;9.970;2023-06-22T05:03:25;101978.28;;;20.24;100.00
14767;BME280;7475;53.558;9.970;2023-06-22T05:05:52;101976.31;;;20.26;100.00
14767;BME280;7475;53.558;9.970;2023-06-22T05:08:17;101981.41;;;20.29;100.00
14767;BME280;7475;53.558;9.970;2023-06-22T05:10:43;101983.84;;;20.32;100.00
14767;BME280;7475;53.558;9.970;2023-06-22T05:13:08;101978.66;;;20.40;100.00
14767;BME280;7475;53.558;9.970;2023-06-22T05:15:33;101983.91;;;20.42;100.00
14767;BME280;7475;53.558;9.970;2023-06-22T05:18:04;101974.69;;;20.44;100.00
14767;BME280;7475;53.558;9.970;2023-06-22T05:20:30;101986.69;;;20.51;100.00
14767;BME280;7475;53.558;9.970;2023-06-22T05:22:56;101985.13;;;20.59;100.00
14767;BME280;7475;53.558;9.970;2023-06-22T05:25:21;101980.22;;;20.64;100.00
14767;BME280;7475;53.558;9.970;2023-06-22T05:27:46;101976.00;;;20.71;100.00
14767;BME280;7475;53.558;9.970;2023-06-22T05:30:12;101973.88;;;20.74;100.00
14767;BME280;7475;53.558;9.970;2023-06-22T05:32:38;101973.72;;;20.76;100.00
14767;BME280;7475;53.558;9.970;2023-06-22T05:35:03;101970.06;;;20.77;100.00
14767;BME280;7475;53.558;9.970;2023-06-22T05:37:29;101969.75;;;20.80;100.00
14767;BME280;7475;53.558;9.970;2023-06-22T05:39:54;101978.31;;;20.85;100.00
14767;BME280;7475;53.558;9.970;2023-06-22T05:42:21;101981.72;;;20.87;100.00
14767;BME280;7475;53.558;9.970;2023-06-22T05:44:46;101983.44;;;20.88;100.00
14767;BME280;7475;53.558;9.970;2023-06-22T05:47:12;101984.03;;;20.92;100.00
14767;BME280;7475;53.558;9.970;2023-06-22T05:49:37;101979.47;;;20.92;100.00
14767;BME280;7475;53.558;9.970;2023-06-22T05:52:03;101976.50;;;20.96;100.00
14767;BME280;7475;53.558;9.970;2023-06-22T05:54:28;101978.91;;;20.99;100.00
14767;BME280;7475;53.558;9.970;2023-06-22T05:56:54;101973.38;;;21.00;100.00
14767;BME280;7475;53.558;9.970;2023-06-22T05:59:19;101978.09;;;21.08;100.00
14767;BME280;7475;53.558;9.970;2023-06-22T06:01:44;101967.59;;;21.15;100.00
14767;BME280;7475;53.558;9.970;2023-06-22T06:04:10;101953.66;;;21.19;100.00
14767;BME280;7475;53.558;9.970;2023-06-22T06:06:35;101958.78;;;21.22;100.00
14767;BME280;7475;53.558;9.970;2023-06-22T06:09:05;101963.91;;;21.25;100.00
14767;BME280;7475;53.558;9.970;2023-06-22T06:11:32;101965.31;;;21.29;100.00
14767;BME280;7475;53.558;9.970;2023-06-22T06:13:58;101963.34;;;21.32;100.00
14767;BME280;7475;53.558;9.970;2023-06-22T06:16:23;101962.75;;;21.38;100.00
14767;BME280;7475;53.558;9.970;2023-06-22T06:18:48;101967.59;;;21.44;100.00
14767;BME280;7475;53.558;9.970;2023-06-22T06:21:16;101967.06;;;21.50;100.00
14767;BME280;7475;53.558;9.970;2023-06-22T06:23:41;101964.22;;;21.61;100.00
14767;BME280;7475;53.558;9.970;2023-06-22T06:26:07;101961.38;;;21.73;100.00
14767;BME280;7475;53.558;9.970;2023-06-22T06:28:32;101965.66;;;21.85;100.00
14767;BME280;7475;53.558;9.970;2023-06-22T06:30:58;101960.78;;;21.98;100.00
14767;BME280;7475;53.558;9.970;2023-06-22T06:33:24;101961.31;;;22.12;100.00
14767;BME280;7475;53.558;9.970;2023-06-22T06:35:49;101965.13;;;22.29;100.00
14767;BME280;7475;53.558;9.970;2023-06-22T06:38:15;101951.28;;;22.42;100.00
14767;BME280;7475;53.558;9.970;2023-06-22T06:40:40;101959.53;;;22.50;100.00
14767;BME280;7475;53.558;9.970;2023-06-22T06:43:06;101953.81;;;22.53;100.00
14767;BME280;7475;53.558;9.970;2023-06-22T06:45:31;101957.78;;;22.59;100.00
14767;BME280;7475;53.558;9.970;2023-06-22T06:47:58;101953.72;;;22.72;100.00
14767;BME280;7475;53.558;9.970;2023-06-22T06:50:23;101951.38;;;22.87;100.00
14767;BME280;7475;53.558;9.970;2023-06-22T06:52:49;101947.28;;;23.01;100.00
14767;BME280;7475;53.558;9.970;2023-06-22T06:55:15;101942.69;;;23.12;100.00
14767;BME280;7475;53.558;9.970;2023-06-22T06:57:42;101941.75;;;23.21;100.00
14767;BME280;7475;53.558;9.970;2023-06-22T07:00:10;101940.31;;;23.26;100.00
14767;BME280;7475;53.558;9.970;2023-06-22T07:02:44;101933.72;;;23.29;100.00
14767;BME280;7475;53.558;9.970;2023-06-22T07:05:11;101934.88;;;23.26;100.00
14767;BME280;7475;53.558;9.970;2023-06-22T07:07:37;101938.06;;;23.22;100.00
14767;BME280;7475;53.558;9.970;2023-06-22T07:10:03;101937.75;;;23.25;100.00
14767;BME280;7475;53.558;9.970;2023-06-22T07:12:29;101944.25;;;23.32;100.00
14767;BME280;7475;53.558;9.970;2023-06-22T07:15:04;101945.03;;;23.42;100.00
14767;BME280;7475;53.558;9.970;2023-06-22T07:17:30;101942.09;;;23.54;100.00
14767;BME280;7475;53.558;9.970;2023-06-22T07:19:55;101941.22;;;23.71;100.00
14767;BME280;7475;53.558;9.970;2023-06-22T07:22:20;101938.66;;;23.88;100.00
14767;BME280;7475;53.558;9.970;2023-06-22T07:24:46;101943.88;;;24.07;100.00
14767;BME280;7475;53.558;9.970;2023-06-22T07:27:11;101938.22;;;24.27;100.00
14767;BME280;7475;53.558;9.970;2023-06-22T07:29:37;101941.06;;;24.51;100.00
14767;BME280;7475;53.558;9.970;2023-06-22T07:32:05;101946.47;;;24.78;100.00
14767;BME280;7475;53.558;9.970;2023-06-22T07:34:30;101936.19;;;24.98;100.00
14767;BME280;7475;53.558;9.970;2023-06-22T07:36:55;101934.81;;;25.10;100.00
14767;BME280;7475;53.558;9.970;2023-06-22T07:39:21;101940.97;;;25.20;100.00
14767;BME280;7475;53.558;9.970;2023-06-22T07:41:51;101936.25;;;25.31;100.00
14767;BME280;7475;53.558;9.970;2023-06-22T07:44:16;101934.91;;;25.43;100.00
14767;BME280;7475;53.558;9.970;2023-06-22T07:46:41;101937.63;;;25.68;100.00
14767;BME280;7475;53.558;9.970;2023-06-22T07:49:07;101938.97;;;26.05;100.00
14767;BME280;7475;53.558;9.970;2023-06-22T07:51:33;101941.59;;;26.46;100.00
14767;BME280;7475;53.558;9.970;2023-06-22T07:53:59;101935.31;;;26.85;100.00
14767;BME280;7475;53.558;9.970;2023-06-22T07:56:24;101940.94;;;27.15;100.00
14767;BME280;7475;53.558;9.970;2023-06-22T07:58:49;101936.72;;;27.27;100.00
14767;BME280;7475;53.558;9.970;2023-06-22T08:01:15;101941.53;;;27.25;100.00
14767;BME280;7475;53.558;9.970;2023-06-22T08:03:40;101946.03;;;27.18;100.00
14767;BME280;7475;53.558;9.970;2023-06-22T08:06:07;101940.06;;;27.14;100.00
14767;BME280;7475;53.558;9.970;2023-06-22T08:08:36;101933.28;;;27.10;100.00
14767;BME280;7475;53.558;9.970;2023-06-22T08:11:02;101945.03;;;27.11;100.00
14767;BME280;7475;53.558;9.970;2023-06-22T08:13:27;101937.16;;;27.16;100.00
14767;BME280;7475;53.558;9.970;2023-06-22T08:15:52;101936.72;;;27.27;100.00
14767;BME280;7475;53.558;9.970;2023-06-22T08:18:17;101927.75;;;27.50;100.00
14767;BME280;7475;53.558;9.970;2023-06-22T08:20:43;101931.34;;;27.65;100.00
14767;BME280;7475;53.558;9.970;2023-06-22T08:23:08;101927.44;;;27.83;100.00
14767;BME280;7475;53.558;9.970;2023-06-22T08:25:34;101936.47;;;28.06;100.00
14767;BME280;7475;53.558;9.970;2023-06-22T08:28:00;101931.66;;;28.23;100.00
14767;BME280;7475;53.558;9.970;2023-06-22T08:30:26;101928.63;;;28.33;100.00
14767;BME280;7475;53.558;9.970;2023-06-22T08:32:51;101921.00;;;28.43;100.00
14767;BME280;7475;53.558;9.970;2023-06-22T08:35:16;101925.66;;;28.58;100.00
14767;BME280;7475;53.558;9.970;2023-06-22T08:37:42;101918.25;;;28.73;100.00
14767;BME280;7475;53.558;9.970;2023-06-22T08:40:09;101918.19;;;29.03;99.80
14767;BME280;7475;53.558;9.970;2023-06-22T08:42:40;101917.69;;;29.36;99.92
14767;BME280;7475;53.558;9.970;2023-06-22T08:45:06;101918.34;;;29.66;97.19
14767;BME280;7475;53.558;9.970;2023-06-22T08:47:31;101918.19;;;29.96;93.94
14767;BME280;7475;53.558;9.970;2023-06-22T08:49:57;101910.59;;;30.26;91.16
14767;BME280;7475;53.558;9.970;2023-06-22T08:52:23;101913.06;;;30.56;89.41
14767;BME280;7475;53.558;9.970;2023-06-22T08:54:49;101893.75;;;30.78;88.51
14767;BME280;7475;53.558;9.970;2023-06-22T08:57:14;101895.47;;;30.85;80.47
14767;BME280;7475;53.558;9.970;2023-06-22T08:59:40;101895.47;;;30.92;81.79
14767;BME280;7475;53.558;9.970;2023-06-22T09:02:05;101892.56;;;31.00;79.66
14767;BME280;7475;53.558;9.970;2023-06-22T09:04:31;101891.09;;;31.11;78.70
14767;BME280;7475;53.558;9.970;2023-06-22T09:07:00;101897.00;;;31.28;79.08
14767;BME280;7475;53.558;9.970;2023-06-22T09:09:25;101892.59;;;31.40;78.23
14767;BME280;7475;53.558;9.970;2023-06-22T09:11:50;101883.31;;;31.48;75.78
14767;BME280;7475;53.558;9.970;2023-06-22T09:14:16;101885.47;;;31.53;76.60
14767;BME280;7475;53.558;9.970;2023-06-22T09:16:41;101883.31;;;31.62;75.36
14767;BME280;7475;53.558;9.970;2023-06-22T09:19:07;101878.66;;;31.62;72.27
14767;BME280;7475;53.558;9.970;2023-06-22T09:21:32;101880.75;;;31.73;70.03
14767;BME280;7475;53.558;9.970;2023-06-22T09:23:58;101878.25;;;31.79;62.42
14767;BME280;7475;53.558;9.970;2023-06-22T09:26:23;101871.44;;;31.88;65.70
14767;BME280;7475;53.558;9.970;2023-06-22T09:28:49;101868.88;;;32.06;66.02
14767;BME280;7475;53.558;9.970;2023-06-22T09:31:14;101869.72;;;32.07;59.47
14767;BME280;7475;53.558;9.970;2023-06-22T09:33:41;101870.56;;;32.21;62.58
14767;BME280;7475;53.558;9.970;2023-06-22T09:36:07;101869.41;;;32.42;62.21
14767;BME280;7475;53.558;9.970;2023-06-22T09:38:38;101859.75;;;32.71;62.55
14767;BME280;7475;53.558;9.970;2023-06-22T09:41:04;101856.66;;;32.93;57.76
14767;BME280;7475;53.558;9.970;2023-06-22T09:43:31;101851.66;;;33.15;57.41
14767;BME280;7475;53.558;9.970;2023-06-22T09:45:57;101845.03;;;33.22;53.76
14767;BME280;7475;53.558;9.970;2023-06-22T09:48:23;101846.34;;;33.20;46.40
14767;BME280;7475;53.558;9.970;2023-06-22T09:50:48;101846.88;;;33.29;45.07
14767;BME280;7475;53.558;9.970;2023-06-22T09:53:13;101846.13;;;33.40;46.98
14767;BME280;7475;53.558;9.970;2023-06-22T09:55:39;101843.75;;;33.69;49.66
14767;BME280;7475;53.558;9.970;2023-06-22T09:58:04;101852.91;;;33.88;48.35
14767;BME280;7475;53.558;9.970;2023-06-22T10:00:29;101844.69;;;34.00;44.87
14767;BME280;7475;53.558;9.970;2023-06-22T10:02:55;101831.38;;;34.15;45.90
14767;BME280;7475;53.558;9.970;2023-06-22T10:05:21;101839.47;;;34.47;46.71
14767;BME280;7475;53.558;9.970;2023-06-22T10:07:46;101831.81;;;34.79;47.21
14767;BME280;7475;53.558;9.970;2023-06-22T10:10:12;101832.97;;;35.14;49.96
14767;BME280;7475;53.558;9.970;2023-06-22T10:12:42;101831.56;;;35.47;48.37
14767;BME280;7475;53.558;9.970;2023-06-22T10:15:08;101826.00;;;35.94;46.63
14767;BME280;7475;53.558;9.970;2023-06-22T10:17:34;101834.09;;;36.53;46.28
14767;BME280;7475;53.558;9.970;2023-06-22T10:20:00;101824.47;;;37.18;43.71
14767;BME280;7475;53.558;9.970;2023-06-22T10:22:26;101826.78;;;37.61;38.46
14767;BME280;7475;53.558;9.970;2023-06-22T10:24:51;101823.88;;;38.34;38.19
14767;BME280;7475;53.558;9.970;2023-06-22T10:27:17;101819.16;;;39.26;36.81
14767;BME280;7475;53.558;9.970;2023-06-22T10:29:42;101817.41;;;40.11;34.63
14767;BME280;7475;53.558;9.970;2023-06-22T10:32:08;101816.72;;;40.92;32.62
14767;BME280;7475;53.558;9.970;2023-06-22T10:34:33;101801.22;;;41.82;30.27
14767;BME280;7475;53.558;9.970;2023-06-22T10:36:58;101803.50;;;42.70;28.66
14767;BME280;7475;53.558;9.970;2023-06-22T10:39:24;101796.25;;;43.76;28.36
14767;BME280;7475;53.558;9.970;2023-06-22T10:41:49;101793.38;;;44.62;25.28
14767;BME280;7475;53.558;9.970;2023-06-22T10:44:14;101790.41;;;44.72;23.79
14767;BME280;7475;53.558;9.970;2023-06-22T10:46:40;101789.47;;;45.24;24.20
14767;BME280;7475;53.558;9.970;2023-06-22T10:49:05;101775.53;;;46.25;23.91
14767;BME280;7475;53.558;9.970;2023-06-22T10:51:30;101781.41;;;47.14;22.50
14767;BME280;7475;53.558;9.970;2023-06-22T10:53:57;101778.09;;;47.52;21.58
14767;BME280;7475;53.558;9.970;2023-06-22T10:56:22;101778.66;;;47.80;20.89
14767;BME280;7475;53.558;9.970;2023-06-22T10:58:48;101764.28;;;48.08;20.29
14767;BME280;7475;53.558;9.970;2023-06-22T11:01:13;101770.59;;;48.05;20.43
14767;BME280;7475;53.558;9.970;2023-06-22T11:03:39;101769.25;;;48.20;20.62
14767;BME280;7475;53.558;9.970;2023-06-22T11:06:04;101760.63;;;46.38;20.79
14767;BME280;7475;53.558;9.970;2023-06-22T11:08:29;101766.63;;;43.75;22.43
14767;BME280;7475;53.558;9.970;2023-06-22T11:10:55;101753.38;;;43.13;24.38
14767;BME280;7475;53.558;9.970;2023-06-22T11:13:20;101759.19;;;43.89;23.61
14767;BME280;7475;53.558;9.970;2023-06-22T11:15:45;101759.28;;;44.88;22.74
14767;BME280;7475;53.558;9.970;2023-06-22T11:18:10;101758.56;;;46.30;22.70
14767;BME280;7475;53.558;9.970;2023-06-22T11:20:36;101749.47;;;47.58;21.52
14767;BME280;7475;53.558;9.970;2023-06-22T11:23:04;101749.03;;;48.44;20.35
14767;BME280;7475;53.558;9.970;2023-06-22T11:25:31;101739.47;;;48.75;19.70
14767;BME280;7475;53.558;9.970;2023-06-22T11:27:56;101741.41;;;48.18;19.63
14767;BME280;7475;53.558;9.970;2023-06-22T11:30:22;101735.44;;;47.93;19.87
14767;BME280;7475;53.558;9.970;2023-06-22T11:32:48;101737.34;;;47.32;20.59
14767;BME280;7475;53.558;9.970;2023-06-22T11:35:14;101738.56;;;45.72;22.04
14767;BME280;7475;53.558;9.970;2023-06-22T11:37:39;101745.69;;;44.48;23.37
14767;BME280;7475;53.558;9.970;2023-06-22T11:40:05;101736.25;;;43.87;23.83
14767;BME280;7475;53.558;9.970;2023-06-22T11:42:33;101732.56;;;42.71;24.72
14767;BME280;7475;53.558;9.970;2023-06-22T11:44:59;101732.22;;;41.48;25.96
14767;BME280;7475;53.558;9.970;2023-06-22T11:47:24;101723.97;;;40.35;27.22
14767;BME280;7475;53.558;9.970;2023-06-22T11:49:50;101727.63;;;39.52;28.63
14767;BME280;7475;53.558;9.970;2023-06-22T11:52:15;101729.13;;;38.85;29.65
14767;BME280;7475;53.558;9.970;2023-06-22T11:54:42;101722.59;;;38.09;30.67
14767;BME280;7475;53.558;9.970;2023-06-22T11:57:08;101721.22;;;37.40;32.15
14767;BME280;7475;53.558;9.970;2023-06-22T11:59:34;101720.94;;;37.20;33.62
14767;BME280;7475;53.558;9.970;2023-06-22T12:01:59;101718.06;;;37.14;34.03
14767;BME280;7475;53.558;9.970;2023-06-22T12:04:24;101712.84;;;36.96;34.58
14767;BME280;7475;53.558;9.970;2023-06-22T12:06:50;101711.06;;;36.56;35.28
14767;BME280;7475;53.558;9.970;2023-06-22T12:09:15;101707.66;;;36.20;36.10
14767;BME280;7475;53.558;9.970;2023-06-22T12:11:40;101701.75;;;35.99;36.51
14767;BME280;7475;53.558;9.970;2023-06-22T12:14:06;101709.50;;;35.73;37.63
14767;BME280;7475;53.558;9.970;2023-06-22T12:16:31;101696.81;;;35.49;39.38
14767;BME280;7475;53.558;9.970;2023-06-22T12:18:56;101685.09;;;35.42;39.51
14767;BME280;7475;53.558;9.970;2023-06-22T12:21:22;101693.56;;;35.52;39.49
14767;BME280;7475;53.558;9.970;2023-06-22T12:23:47;101687.97;;;35.23;39.21
14767;BME280;7475;53.558;9.970;2023-06-22T12:26:13;101685.38;;;35.05;39.99
14767;BME280;7475;53.558;9.970;2023-06-22T12:28:38;101682.22;;;34.89;41.16
14767;BME280;7475;53.558;9.970;2023-06-22T12:31:03;101678.63;;;35.00;42.29
14767;BME280;7475;53.558;9.970;2023-06-22T12:33:28;101672.63;;;35.27;42.20
14767;BME280;7475;53.558;9.970;2023-06-22T12:35:55;101681.25;;;35.19;42.60
14767;BME280;7475;53.558;9.970;2023-06-22T12:38:21;101675.88;;;35.00;43.89
14767;BME280;7475;53.558;9.970;2023-06-22T12:40:46;101676.13;;;34.87;44.84
14767;BME280;7475;53.558;9.970;2023-06-22T12:43:12;101668.28;;;34.60;42.87
14767;BME280;7475;53.558;9.970;2023-06-22T12:45:37;101670.88;;;34.32;44.36
14767;BME280;7475;53.558;9.970;2023-06-22T12:48:03;101667.66;;;34.35;46.16
14767;BME280;7475;53.558;9.970;2023-06-22T12:50:28;101664.16;;;34.27;46.12